createdAt,value
2024-04-18T00:01:16.403Z,98918.63
2024-04-18T00:03:44.637Z,98920.02
2024-04-18T00:06:12.125Z,98915.95
2024-04-18T00:08:39.611Z,98911.88
2024-04-18T00:11:25.436Z,98909.25
2024-04-18T00:13:52.901Z,98905.06
2024-04-18T00:16:35.508Z,98900.91
2024-04-18T00:19:18.079Z,98899.79
2024-04-18T00:21:58.653Z,98908.02
2024-04-18T00:24:29.096Z,98908.93
2024-04-18T00:26:56.771Z,98907.69
2024-04-18T00:29:36.936Z,98906.23
2024-04-18T00:32:16.559Z,98907.88
2024-04-18T00:35:02.352Z,98905.56
2024-04-18T00:37:35.653Z,98913.73
2024-04-18T00:40:03.089Z,98916.73
2024-04-18T00:42:37.346Z,98917.38
2024-04-18T00:45:07.891Z,98919.46
2024-04-18T00:47:48.490Z,98917.79
2024-04-18T00:50:16.842Z,98928.80
2024-04-18T00:52:44.228Z,98927.94
2024-04-18T00:55:28.188Z,98933.31
2024-04-18T00:58:11.436Z,98929.73
2024-04-18T01:00:42.237Z,98926.71
2024-04-18T01:03:28.358Z,98926.95
2024-04-18T01:06:08.603Z,98934.09
2024-04-18T01:08:55.083Z,98935.54
2024-04-18T01:11:32.042Z,98939.92
2024-04-18T01:14:11.998Z,98939.87
2024-04-18T01:16:58.112Z,98933.80
2024-04-18T01:19:25.498Z,98938.89
2024-04-18T01:21:53.432Z,98943.52
2024-04-18T01:24:20.947Z,98930.91
2024-04-18T01:26:48.325Z,98920.95
2024-04-18T01:29:15.739Z,98919.27
2024-04-18T01:32:01.944Z,98921.74
2024-04-18T01:34:29.394Z,98918.77
2024-04-18T01:37:15.329Z,98914.74
2024-04-18T01:39:44.610Z,98914.70
2024-04-18T01:42:12.353Z,98912.16
2024-04-18T01:44:43.434Z,98914.57
2024-04-18T01:47:29.171Z,98920.23
2024-04-18T01:50:09.245Z,98916.02
2024-04-18T01:52:37.134Z,98911.36
2024-04-18T01:55:05.305Z,98918.29
2024-04-18T01:57:39.816Z,98928.60
2024-04-18T02:00:25.440Z,98937.34
2024-04-18T02:02:52.906Z,98948.42
2024-04-18T02:05:38.918Z,98955.29
2024-04-18T02:08:15.563Z,98956.79
2024-04-18T02:10:45.600Z,98960.77
2024-04-18T02:13:36.294Z,98958.73
2024-04-18T02:16:04.433Z,98955.39
2024-04-18T02:18:50.590Z,98950.78
2024-04-18T02:21:17.999Z,98940.45
2024-04-18T02:23:52.328Z,98933.05
2024-04-18T02:26:20.591Z,98930.05
2024-04-18T02:28:47.935Z,98939.99
2024-04-18T02:31:18.164Z,98945.27
2024-04-18T02:33:52.779Z,98943.61
2024-04-18T02:36:20.857Z,98949.06
2024-04-18T02:38:48.243Z,98945.25
2024-04-18T02:41:15.601Z,98946.86
2024-04-18T02:43:50.901Z,98942.95
2024-04-18T02:46:18.432Z,98947.31
2024-04-18T02:49:04.548Z,98953.09
2024-04-18T02:51:32.151Z,98960.27
2024-04-18T02:54:14.804Z,98962.26
2024-04-18T02:56:42.328Z,98962.25
2024-04-18T02:59:11.789Z,98964.79
2024-04-18T03:01:51.495Z,98969.80
2024-04-18T03:04:18.933Z,98974.94
2024-04-18T03:06:46.741Z,98973.60
2024-04-18T03:09:14.826Z,98968.05
2024-04-18T03:11:54.554Z,98956.91
2024-04-18T03:14:43.271Z,98960.94
2024-04-18T03:17:10.753Z,98961.67
2024-04-18T03:19:56.721Z,98951.95
2024-04-18T03:22:27.179Z,98950.29
2024-04-18T03:25:00.995Z,98947.88
2024-04-18T03:27:31.657Z,98937.90
2024-04-18T03:29:59.134Z,98936.59
2024-04-18T03:32:36.557Z,98934.65
2024-04-18T03:35:04.780Z,98934.08
2024-04-18T03:37:32.912Z,98937.43
2024-04-18T03:40:21.149Z,98935.52
2024-04-18T03:43:03.885Z,98943.21
2024-04-18T03:45:31.497Z,98938.63
2024-04-18T03:48:17.518Z,98939.62
2024-04-18T03:50:45.034Z,98934.79
2024-04-18T03:53:21.877Z,98938.72
2024-04-18T03:56:09.627Z,98942.23
2024-04-18T03:58:37.063Z,98942.20
2024-04-18T04:01:04.705Z,98937.40
2024-04-18T04:03:32.352Z,98933.34
2024-04-18T04:05:59.801Z,98933.74
2024-04-18T04:08:27.213Z,98932.99
2024-04-18T04:11:13.856Z,98935.83
2024-04-18T04:13:41.304Z,98938.31
2024-04-18T04:16:19.578Z,98945.23
2024-04-18T04:18:51.531Z,98941.09
2024-04-18T04:21:38.464Z,98939.85
2024-04-18T04:24:06.393Z,98936.40
2024-04-18T04:26:52.312Z,98929.69
2024-04-18T04:29:20.791Z,98926.13
2024-04-18T04:31:48.198Z,98928.42
2024-04-18T04:34:15.650Z,98920.41
2024-04-18T04:36:43.123Z,98919.79
2024-04-18T04:39:10.970Z,98921.88
2024-04-18T04:41:41.306Z,98919.96
2024-04-18T04:44:08.694Z,98925.00
2024-04-18T04:46:50.045Z,98924.77
2024-04-18T04:49:18.724Z,98927.16
2024-04-18T04:52:02.100Z,98935.24
2024-04-18T04:54:45.237Z,98935.59
2024-04-18T04:57:13.214Z,98931.34
2024-04-18T04:59:40.931Z,98923.94
2024-04-18T05:02:08.355Z,98912.64
2024-04-18T05:04:51.241Z,98899.27
2024-04-18T05:07:31.422Z,98899.82
2024-04-18T05:09:58.929Z,98903.13
2024-04-18T05:12:26.328Z,98909.06
2024-04-18T05:14:53.736Z,98908.66
2024-04-18T05:17:53.118Z,98903.41
2024-04-18T05:20:20.557Z,98894.88
2024-04-18T05:22:48.244Z,98881.73
2024-04-18T05:25:15.721Z,98880.45
2024-04-18T05:27:54.340Z,98876.27
2024-04-18T05:30:58.941Z,98870.42
2024-04-18T05:33:26.459Z,98868.27
2024-04-18T05:35:53.927Z,98867.27
2024-04-18T05:38:21.384Z,98873.13
2024-04-18T05:40:49.635Z,98873.99
2024-04-18T05:43:17.066Z,98877.67
2024-04-18T05:45:48.154Z,98880.61
2024-04-18T05:48:15.691Z,98872.17
2024-04-18T05:50:43.220Z,98867.70
2024-04-18T05:53:21.304Z,98868.85
2024-04-18T05:55:54.619Z,98866.92
2024-04-18T05:58:22.023Z,98867.31
2024-04-18T06:00:55.540Z,98864.23
2024-04-18T06:03:23.923Z,98855.77
2024-04-18T06:05:53.330Z,98852.64
2024-04-18T06:08:20.727Z,98851.23
2024-04-18T06:10:48.245Z,98853.21
2024-04-18T06:13:19.611Z,98861.89
2024-04-18T06:15:48.504Z,98857.48
2024-04-18T06:18:16.161Z,98864.49
2024-04-18T06:20:47.067Z,98869.30
2024-04-18T06:23:14.775Z,98869.98
2024-04-18T06:25:42.556Z,98887.05
2024-04-18T06:28:13.422Z,98892.27
2024-04-18T06:30:41.180Z,98893.32
2024-04-18T06:33:11.738Z,98891.86
2024-04-18T06:35:39.399Z,98891.89
2024-04-18T06:38:07.752Z,98895.73
2024-04-18T06:40:35.306Z,98892.08
2024-04-18T06:43:02.809Z,98879.10
2024-04-18T06:45:30.482Z,98869.51
2024-04-18T06:47:58.111Z,98864.63
2024-04-18T06:50:27.588Z,98855.29
2024-04-18T06:52:55.226Z,98854.17
2024-04-18T06:55:26.062Z,98849.45
2024-04-18T06:57:53.525Z,98847.39
2024-04-18T07:00:21.091Z,98837.33
2024-04-18T07:02:48.561Z,98825.70
2024-04-18T07:05:34.789Z,98822.16
2024-04-18T07:08:20.442Z,98817.50
2024-04-18T07:10:47.981Z,98815.66
2024-04-18T07:13:32.756Z,98810.56
2024-04-18T07:16:03.621Z,98810.42
2024-04-18T07:18:50.035Z,98815.86
2024-04-18T07:21:17.678Z,98815.98
2024-04-18T07:23:45.364Z,98814.34
2024-04-18T07:26:13.200Z,98811.20
2024-04-18T07:28:40.778Z,98806.89
2024-04-18T07:31:08.333Z,98799.08
2024-04-18T07:33:35.923Z,98790.94
2024-04-18T07:36:16.512Z,98787.48
2024-04-18T07:38:43.931Z,98774.61
2024-04-18T07:41:11.378Z,98760.37
2024-04-18T07:43:38.909Z,98762.59
2024-04-18T07:46:06.639Z,98753.75
2024-04-18T07:48:34.116Z,98752.23
2024-04-18T07:51:01.603Z,98745.59
2024-04-18T07:53:28.989Z,98734.27
2024-04-18T07:55:56.484Z,98734.30
2024-04-18T07:58:24.884Z,98732.98
2024-04-18T08:00:54.988Z,98726.81
2024-04-18T08:03:25.421Z,98717.73
2024-04-18T08:05:56.339Z,98708.52
2024-04-18T08:08:28.760Z,98705.87
2024-04-18T08:13:32.776Z,98709.47
2024-04-18T08:16:03.193Z,98711.95
2024-04-18T08:18:31.831Z,98714.70
2024-04-18T08:21:00.243Z,98723.73
2024-04-18T08:23:28.019Z,98721.40
2024-04-18T08:25:55.520Z,98715.84
2024-04-18T08:28:23.061Z,98714.06
2024-04-18T08:30:51.875Z,98722.09
2024-04-18T08:33:19.482Z,98729.25
2024-04-18T08:35:47.150Z,98729.71
2024-04-18T08:38:14.927Z,98734.75
2024-04-18T08:40:45.725Z,98739.85
2024-04-18T08:43:13.594Z,98742.49
2024-04-18T08:45:41.834Z,98749.86
2024-04-18T08:48:09.473Z,98757.81
2024-04-18T08:50:38.320Z,98761.27
2024-04-18T08:53:05.989Z,98764.39
2024-04-18T08:55:34.000Z,98768.34
2024-04-18T08:58:08.247Z,98770.45
2024-04-18T09:00:36.804Z,98767.16
2024-04-18T09:03:04.637Z,98762.55
2024-04-18T09:05:33.145Z,98755.20
2024-04-18T09:08:01.153Z,98731.46
2024-04-18T09:10:32.264Z,98730.24
2024-04-18T09:13:04.077Z,98732.18
2024-04-18T09:15:34.415Z,98737.92
2024-04-18T09:18:02.824Z,98735.49
2024-04-18T09:20:31.892Z,98735.64
2024-04-18T09:22:59.430Z,98742.71
2024-04-18T09:25:27.173Z,98746.40
2024-04-18T09:27:54.734Z,98741.20
2024-04-18T09:30:22.356Z,98739.20
2024-04-18T09:32:49.994Z,98714.98
2024-04-18T09:35:17.744Z,98684.75
2024-04-18T09:37:52.742Z,98686.39
2024-04-18T09:40:24.843Z,98692.14
2024-04-18T09:42:55.151Z,98697.49
2024-04-18T09:45:23.262Z,98711.86
2024-04-18T09:47:50.873Z,98722.19
2024-04-18T09:50:18.619Z,98728.62
2024-04-18T09:52:46.370Z,98726.96
2024-04-18T09:55:14.720Z,98717.42
2024-04-18T09:57:43.875Z,98708.24
2024-04-18T10:00:12.090Z,98699.98
2024-04-18T10:02:39.792Z,98693.00
2024-04-18T10:05:08.145Z,98686.34
2024-04-18T10:07:35.738Z,98682.86
2024-04-18T10:10:03.605Z,98672.77
2024-04-18T10:12:35.497Z,98667.75
2024-04-18T10:15:03.499Z,98659.79
2024-04-18T10:17:31.796Z,98657.64
2024-04-18T10:20:03.406Z,98655.16
2024-04-18T10:22:45.211Z,98657.09
2024-04-18T10:25:21.790Z,98655.83
2024-04-18T10:27:49.532Z,98667.95
2024-04-18T10:30:20.135Z,98676.27
2024-04-18T10:32:49.445Z,98674.38
2024-04-18T10:35:17.852Z,98677.27
2024-04-18T10:37:52.034Z,98675.15
2024-04-18T10:40:19.641Z,98668.17
2024-04-18T10:42:47.312Z,98669.27
2024-04-18T10:45:16.603Z,98667.67
2024-04-18T10:47:45.112Z,98666.77
2024-04-18T10:50:12.630Z,98671.46
2024-04-18T10:52:40.173Z,98667.30
2024-04-18T10:55:07.838Z,98663.08
2024-04-18T10:57:35.390Z,98667.05
2024-04-18T11:00:03.084Z,98660.54
2024-04-18T11:02:33.802Z,98645.88
2024-04-18T11:05:01.591Z,98633.26
2024-04-18T11:07:49.115Z,98635.19
2024-04-18T11:10:16.858Z,98644.05
2024-04-18T11:12:44.420Z,98645.14
2024-04-18T11:15:12.061Z,98648.49
2024-04-18T11:17:39.653Z,98658.42
2024-04-18T11:20:11.285Z,98678.40
2024-04-18T11:22:39.257Z,98691.27
2024-04-18T11:25:10.340Z,98692.70
2024-04-18T11:27:37.962Z,98696.61
2024-04-18T11:30:07.500Z,98688.71
2024-04-18T11:32:35.160Z,98664.95
2024-04-18T11:35:11.311Z,98627.30
2024-04-18T11:37:43.196Z,98584.15
2024-04-18T11:40:11.127Z,98562.14
2024-04-18T11:42:38.713Z,98569.73
2024-04-18T11:45:07.609Z,98571.90
2024-04-18T11:47:35.461Z,98562.52
2024-04-18T11:50:03.140Z,98560.17
2024-04-18T11:52:30.733Z,98559.17
2024-04-18T11:54:58.286Z,98554.34
2024-04-18T11:57:38.101Z,98542.72
2024-04-18T12:00:06.324Z,98540.27
2024-04-18T12:02:54.209Z,98529.39
2024-04-18T12:05:24.647Z,98521.91
2024-04-18T12:07:55.978Z,98510.26
2024-04-18T12:10:32.417Z,98499.80
2024-04-18T12:13:05.686Z,98495.66
2024-04-18T12:15:36.798Z,98487.48
2024-04-18T12:18:05.313Z,98490.14
2024-04-18T12:20:48.456Z,98503.91
2024-04-18T12:23:35.501Z,98495.30
2024-04-18T12:26:05.629Z,98493.06
2024-04-18T12:28:45.211Z,98491.54
2024-04-18T12:31:12.864Z,98499.19
2024-04-18T12:33:49.769Z,98485.81
2024-04-18T12:36:18.348Z,98478.48
2024-04-18T12:38:46.026Z,98478.23
2024-04-18T12:41:14.039Z,98448.34
2024-04-18T12:43:41.713Z,98435.67
2024-04-18T12:46:28.141Z,98428.16
2024-04-18T12:48:57.482Z,98425.87
2024-04-18T12:51:25.594Z,98432.52
2024-04-18T12:53:54.786Z,98428.71
2024-04-18T12:56:41.978Z,98414.52
2024-04-18T12:59:27.607Z,98410.33
2024-04-18T13:01:55.152Z,98401.41
2024-04-18T13:04:23.065Z,98392.39
2024-04-18T13:06:50.999Z,98390.60
2024-04-18T13:09:34.099Z,98386.42
2024-04-18T13:12:05.211Z,98387.06
2024-04-18T13:14:51.725Z,98375.66
2024-04-18T13:17:19.639Z,98370.24
2024-04-18T13:19:47.427Z,98367.02
2024-04-18T13:22:18.165Z,98365.95
2024-04-18T13:24:46.128Z,98361.81
2024-04-18T13:27:32.534Z,98368.61
2024-04-18T13:30:00.584Z,98372.77
2024-04-18T13:32:35.572Z,98361.69
2024-04-18T13:35:03.388Z,98357.55
2024-04-18T13:37:30.895Z,98350.02
2024-04-18T13:40:17.031Z,98338.53
2024-04-18T13:42:57.820Z,98327.87
2024-04-18T13:45:31.883Z,98327.92
2024-04-18T13:48:00.657Z,98321.20
2024-04-18T13:50:48.042Z,98315.92
2024-04-18T13:53:16.972Z,98308.29
2024-04-18T13:55:50.010Z,98304.57
2024-04-18T13:58:19.106Z,98299.98
2024-04-18T14:00:59.650Z,98296.96
2024-04-18T14:03:31.947Z,98285.19
2024-04-18T14:06:09.352Z,98271.77
2024-04-18T14:08:38.058Z,98259.93
2024-04-18T14:11:27.517Z,98251.77
2024-04-18T14:14:08.643Z,98253.90
2024-04-18T14:16:55.827Z,98243.19
2024-04-18T14:19:33.219Z,98238.29
2024-04-18T14:22:07.545Z,98234.20
2024-04-18T14:24:36.520Z,98238.39
2024-04-18T14:27:04.297Z,98239.99
2024-04-18T14:29:31.942Z,98237.45
2024-04-18T14:32:02.946Z,98239.61
2024-04-18T14:34:49.091Z,98245.73
2024-04-18T14:37:19.798Z,98244.80
2024-04-18T14:39:48.010Z,98264.13
2024-04-18T14:42:15.798Z,98276.06
2024-04-18T14:44:43.623Z,98281.02
2024-04-18T14:47:17.323Z,98284.99
2024-04-18T14:50:01.800Z,98268.52
2024-04-18T14:52:35.275Z,98240.50
2024-04-18T14:55:28.347Z,98239.28
2024-04-18T14:58:15.853Z,98221.88
2024-04-18T15:00:50.497Z,98230.73
2024-04-18T15:03:18.804Z,98227.05
2024-04-18T15:05:53.880Z,98212.21
2024-04-18T15:08:41.027Z,98203.70
2024-04-18T15:11:23.590Z,98188.02
2024-04-18T15:14:06.760Z,98179.95
2024-04-18T15:16:34.555Z,98177.45
2024-04-18T15:19:02.342Z,98187.24
2024-04-18T15:21:50.119Z,98186.72
2024-04-18T15:24:18.067Z,98197.77
2024-04-18T15:27:04.231Z,98198.65
2024-04-18T15:29:32.341Z,98204.55
2024-04-18T15:32:20.836Z,98211.13
2024-04-18T15:34:48.637Z,98218.44
2024-04-18T15:37:34.751Z,98221.55
2024-04-18T15:40:02.422Z,98220.23
2024-04-18T15:42:30.003Z,98223.48
2024-04-18T15:45:00.737Z,98216.97
2024-04-18T15:47:32.554Z,98220.35
2024-04-18T15:50:18.331Z,98218.40
2024-04-18T15:52:46.093Z,98218.06
2024-04-18T15:55:30.287Z,98225.13
2024-04-18T15:58:18.390Z,98219.20
2024-04-18T16:00:45.994Z,98222.02
2024-04-18T16:03:34.860Z,98214.59
2024-04-18T16:06:22.713Z,98216.05
2024-04-18T16:09:09.151Z,98227.10
2024-04-18T16:11:40.418Z,98226.98
2024-04-18T16:14:28.728Z,98226.47
2024-04-18T16:16:56.508Z,98226.95
2024-04-18T16:19:39.310Z,98222.57
2024-04-18T16:22:06.978Z,98226.42
2024-04-18T16:24:49.610Z,98223.55
2024-04-18T16:27:17.426Z,98224.27
2024-04-18T16:30:00.575Z,98226.19
2024-04-18T16:32:45.270Z,98226.83
2024-04-18T16:35:12.833Z,98226.48
2024-04-18T16:37:41.841Z,98236.84
2024-04-18T16:40:16.058Z,98240.28
2024-04-18T16:42:59.822Z,98239.73
2024-04-18T16:45:27.382Z,98243.50
2024-04-18T16:47:55.101Z,98251.08
2024-04-18T16:50:22.740Z,98251.73
2024-04-18T16:52:50.899Z,98247.70
2024-04-18T16:55:36.912Z,98240.95
2024-04-18T16:58:17.075Z,98242.27
2024-04-18T17:00:59.944Z,98250.01
2024-04-18T17:03:27.840Z,98262.42
2024-04-18T17:06:02.618Z,98266.66
2024-04-18T17:08:30.522Z,98273.80
2024-04-18T17:10:58.030Z,98287.54
2024-04-18T17:13:44.141Z,98286.05
2024-04-18T17:16:12.150Z,98289.98
2024-04-18T17:18:49.184Z,98293.66
2024-04-18T17:21:16.845Z,98307.30
2024-04-18T17:23:44.512Z,98311.57
2024-04-18T17:26:12.064Z,98315.84
2024-04-18T17:28:39.838Z,98325.05
2024-04-18T17:31:07.721Z,98331.92
2024-04-18T17:33:35.629Z,98332.77
2024-04-18T17:36:04.043Z,98327.73
2024-04-18T17:38:47.354Z,98330.83
2024-04-18T17:41:30.923Z,98338.15
2024-04-18T17:44:27.660Z,98338.05
2024-04-18T17:46:59.362Z,98344.05
2024-04-18T17:49:27.245Z,98351.94
2024-04-18T17:51:55.192Z,98356.80
2024-04-18T17:54:22.955Z,98361.86
2024-04-18T17:56:51.291Z,98365.13
2024-04-18T17:59:20.185Z,98365.19
2024-04-18T18:01:47.680Z,98367.98
2024-04-18T18:04:15.453Z,98367.74
2024-04-18T18:06:43.148Z,98372.60
2024-04-18T18:09:10.825Z,98372.17
2024-04-18T18:11:38.521Z,98376.20
2024-04-18T18:14:06.187Z,98375.93
2024-04-18T18:16:52.296Z,98374.95
2024-04-18T18:19:20.006Z,98377.91
2024-04-18T18:21:56.555Z,98380.93
2024-04-18T18:24:24.190Z,98378.84
2024-04-18T18:26:51.697Z,98382.66
2024-04-18T18:29:19.354Z,98391.02
2024-04-18T18:32:13.910Z,98396.79
2024-04-18T18:34:48.657Z,98394.64
2024-04-18T18:37:16.331Z,98401.83
2024-04-18T18:39:44.010Z,98404.02
2024-04-18T18:42:12.165Z,98404.52
2024-04-18T18:44:40.188Z,98400.52
2024-04-18T18:47:07.784Z,98401.05
2024-04-18T18:49:50.486Z,98408.69
2024-04-18T18:52:20.080Z,98409.95
2024-04-18T18:54:47.854Z,98416.96
2024-04-18T18:57:15.442Z,98415.38
2024-04-18T18:59:43.941Z,98413.77
2024-04-18T19:02:11.665Z,98415.91
2024-04-18T19:04:57.972Z,98422.38
2024-04-18T19:07:25.530Z,98425.91
2024-04-18T19:09:53.563Z,98426.70
2024-04-18T19:12:21.219Z,98427.37
2024-04-18T19:14:48.942Z,98423.93
2024-04-18T19:17:18.036Z,98432.79
2024-04-18T19:19:46.459Z,98441.66
2024-04-18T19:22:14.095Z,98448.65
2024-04-18T19:24:41.763Z,98450.50
2024-04-18T19:27:09.410Z,98445.83
2024-04-18T19:29:44.839Z,98447.54
2024-04-18T19:32:16.783Z,98446.41
2024-04-18T19:34:44.528Z,98448.99
2024-04-18T19:37:12.039Z,98458.17
2024-04-18T19:39:40.005Z,98461.55
2024-04-18T19:42:07.671Z,98463.02
2024-04-18T19:44:35.459Z,98466.80
2024-04-18T19:47:04.290Z,98468.85
2024-04-18T19:49:37.740Z,98479.48
2024-04-18T19:52:08.150Z,98482.54
2024-04-18T19:54:36.515Z,98492.55
2024-04-18T19:57:04.971Z,98488.50
2024-04-18T19:59:32.665Z,98491.51
2024-04-18T20:02:00.230Z,98502.13
2024-04-18T20:04:27.928Z,98508.70
2024-04-18T20:06:55.515Z,98507.29
2024-04-18T20:09:23.068Z,98514.54
2024-04-18T20:11:50.630Z,98517.54
2024-04-18T20:14:21.054Z,98517.95
2024-04-18T20:16:48.598Z,98517.64
2024-04-18T20:19:16.775Z,98528.08
2024-04-18T20:21:44.967Z,98527.61
2024-04-18T20:24:14.271Z,98531.27
2024-04-18T20:27:00.593Z,98536.92
2024-04-18T20:29:46.520Z,98562.61
2024-04-18T20:32:26.496Z,98576.55
2024-04-18T20:34:54.288Z,98585.80
2024-04-18T20:37:22.371Z,98590.38
2024-04-18T20:39:50.357Z,98595.52
2024-04-18T20:42:18.392Z,98601.38
2024-04-18T20:45:01.980Z,98604.30
2024-04-18T20:47:29.605Z,98615.45
2024-04-18T20:49:57.242Z,98616.23
2024-04-18T20:52:24.856Z,98627.23
2024-04-18T20:54:52.428Z,98631.74
2024-04-18T20:57:19.812Z,98632.78
2024-04-18T20:59:47.466Z,98637.14
2024-04-18T21:02:15.028Z,98641.41
2024-04-18T21:04:42.637Z,98649.41
2024-04-18T21:07:10.077Z,98657.23
2024-04-18T21:09:37.675Z,98664.45
2024-04-18T21:12:05.615Z,98668.81
2024-04-18T21:14:33.030Z,98671.70
2024-04-18T21:17:00.423Z,98679.15
2024-04-18T21:19:28.279Z,98687.52
2024-04-18T21:21:55.735Z,98688.70
2024-04-18T21:24:23.146Z,98688.31
2024-04-18T21:26:50.550Z,98690.20
2024-04-18T21:29:18.059Z,98693.90
2024-04-18T21:31:45.489Z,98697.96
2024-04-18T21:34:12.959Z,98703.50
2024-04-18T21:36:40.476Z,98711.92
2024-04-18T21:39:08.047Z,98713.25
2024-04-18T21:41:35.735Z,98716.73
2024-04-18T21:44:03.193Z,98722.38
2024-04-18T21:46:30.570Z,98725.92
2024-04-18T21:48:58.169Z,98731.52
2024-04-18T21:51:25.719Z,98736.29
2024-04-18T21:53:53.317Z,98743.09
2024-04-18T21:56:20.676Z,98735.77
2024-04-18T21:58:51.620Z,98736.05
2024-04-18T22:01:37.378Z,98734.48
2024-04-18T22:04:05.114Z,98740.61
2024-04-18T22:06:33.775Z,98746.41
2024-04-18T22:09:01.209Z,98743.25
2024-04-18T22:11:28.729Z,98748.55
2024-04-18T22:13:56.933Z,98751.81
2024-04-18T22:16:24.338Z,98741.21
2024-04-18T22:18:52.211Z,98738.73
2024-04-18T22:21:37.768Z,98740.07
2024-04-18T22:24:05.919Z,98736.35
2024-04-18T22:26:33.785Z,98742.55
2024-04-18T22:29:01.327Z,98750.38
2024-04-18T22:31:29.290Z,98766.22
2024-04-18T22:33:56.784Z,98779.02
2024-04-18T22:36:26.276Z,98792.70
2024-04-18T22:38:53.774Z,98807.95
2024-04-18T22:41:21.430Z,98817.73
2024-04-18T22:43:48.822Z,98826.61
2024-04-18T22:46:16.297Z,98826.00
2024-04-18T22:48:43.760Z,98829.59
2024-04-18T22:51:11.219Z,98836.40
2024-04-18T22:53:38.704Z,98843.38
2024-04-18T22:56:06.258Z,98852.39
2024-04-18T22:58:33.665Z,98861.66
2024-04-18T23:01:04.556Z,98872.22
2024-04-18T23:03:32.202Z,98877.38
2024-04-18T23:06:15.205Z,98882.48
2024-04-18T23:08:43.284Z,98886.77
2024-04-18T23:11:10.946Z,98889.33
2024-04-18T23:13:38.468Z,98892.97
2024-04-18T23:16:06.196Z,98900.23
2024-04-18T23:18:33.929Z,98903.67
2024-04-18T23:21:01.423Z,98904.29
2024-04-18T23:23:34.876Z,98906.36
2024-04-18T23:26:03.208Z,98910.24
2024-04-18T23:28:30.644Z,98923.89
2024-04-18T23:30:58.045Z,98924.85
2024-04-18T23:33:25.631Z,98922.26
2024-04-18T23:35:53.098Z,98922.31
2024-04-18T23:38:20.722Z,98923.08
2024-04-18T23:40:48.506Z,98924.86
2024-04-18T23:43:15.911Z,98920.36
2024-04-18T23:45:43.656Z,98917.21
2024-04-18T23:48:12.972Z,98916.60
2024-04-18T23:50:42.172Z,98918.90
2024-04-18T23:53:09.538Z,98920.73
2024-04-18T23:55:37.290Z,98928.25
2024-04-18T23:58:04.903Z,98924.59
